createdAt,value
2023-02-16T00:00:45.217Z,18.35
2023-02-16T00:03:21.585Z,20.05
2023-02-16T00:05:49.392Z,19.65
2023-02-16T00:08:16.512Z,18.65
2023-02-16T00:11:06.267Z,16.85
2023-02-16T00:13:47.642Z,16.10
2023-02-16T00:16:17.221Z,16.65
2023-02-16T00:18:44.319Z,16.20
2023-02-16T00:21:11.401Z,18.13
2023-02-16T00:23:38.661Z,18.20
2023-02-16T00:26:06.991Z,18.58
2023-02-16T00:28:33.919Z,23.27
2023-02-16T00:31:00.983Z,21.60
2023-02-16T00:33:29.759Z,23.17
2023-02-16T00:35:56.644Z,20.20
2023-02-16T00:38:23.575Z,19.50
2023-02-16T00:40:50.531Z,21.52
2023-02-16T00:43:26.170Z,29.58
2023-02-16T00:45:53.733Z,21.92
2023-02-16T00:48:22.420Z,22.23
2023-02-16T00:50:49.514Z,24.55
2023-02-16T00:53:18.167Z,23.35
2023-02-16T00:55:45.167Z,21.65
2023-02-16T00:58:24.719Z,24.15
2023-02-16T01:00:55.448Z,26.33
2023-02-16T01:03:27.593Z,24.70
2023-02-16T01:06:14.591Z,28.08
2023-02-16T01:09:00.793Z,26.77
2023-02-16T01:11:28.125Z,25.05
2023-02-16T01:13:56.949Z,29.88
2023-02-16T01:16:27.047Z,29.00
2023-02-16T01:18:54.465Z,28.10
2023-02-16T01:21:24.421Z,29.95
2023-02-16T01:23:52.689Z,30.67
2023-02-16T01:26:20.994Z,32.28
2023-02-16T01:28:48.923Z,30.58
2023-02-16T01:31:17.201Z,30.33
2023-02-16T01:33:44.555Z,26.17
2023-02-16T01:36:35.082Z,24.60
2023-02-16T01:39:02.670Z,24.65
2023-02-16T01:41:47.070Z,25.70
2023-02-16T01:44:20.698Z,24.98
2023-02-16T01:47:02.802Z,24.83
2023-02-16T01:49:31.809Z,22.52
2023-02-16T01:52:05.441Z,23.92
2023-02-16T01:54:47.749Z,25.50
2023-02-16T01:57:32.617Z,26.65
2023-02-16T02:00:06.178Z,33.22
2023-02-16T02:02:46.648Z,34.85
2023-02-16T02:05:36.358Z,38.58
2023-02-16T02:08:31.827Z,32.70
2023-02-16T02:11:18.352Z,30.25
2023-02-16T02:14:07.883Z,45.40
2023-02-16T02:16:35.321Z,51.50
2023-02-16T02:19:02.722Z,47.42
2023-02-16T02:22:19.324Z,45.50
2023-02-16T02:25:05.041Z,43.22
2023-02-16T02:27:35.792Z,38.85
2023-02-16T02:30:22.682Z,34.67
2023-02-16T02:33:05.118Z,36.20
2023-02-16T02:35:58.772Z,33.72
2023-02-16T02:38:58.853Z,30.67
2023-02-16T02:42:02.869Z,27.45
2023-02-16T02:44:33.782Z,24.40
2023-02-16T02:47:01.409Z,22.83
2023-02-16T02:49:28.427Z,30.45
2023-02-16T02:51:55.417Z,27.83
2023-02-16T02:54:55.170Z,36.17
2023-02-16T02:58:04.312Z,42.97
2023-02-16T03:00:44.153Z,45.25
2023-02-16T03:03:33.207Z,46.20
2023-02-16T03:06:08.199Z,42.53
2023-02-16T03:08:38.359Z,45.22
2023-02-16T03:11:46.298Z,45.40
2023-02-16T03:14:16.537Z,49.97
2023-02-16T03:17:10.447Z,50.95
2023-02-16T03:19:58.572Z,52.05
2023-02-16T03:22:44.534Z,55.97
2023-02-16T03:25:30.552Z,52.75
2023-02-16T03:30:46.117Z,53.83
2023-02-16T03:33:13.249Z,60.85
2023-02-16T03:35:40.270Z,62.92
2023-02-16T03:38:07.709Z,55.90
2023-02-16T03:40:36.589Z,42.83
2023-02-16T03:43:06.492Z,41.05
2023-02-16T03:45:35.792Z,35.55
2023-02-16T03:48:03.584Z,39.47
2023-02-16T03:50:30.501Z,41.72
2023-02-16T03:53:07.072Z,41.42
2023-02-16T03:55:43.555Z,37.72
2023-02-16T03:58:15.652Z,36.30
2023-02-16T04:00:42.680Z,34.38
2023-02-16T04:03:09.864Z,32.63
2023-02-16T04:05:37.518Z,37.20
2023-02-16T04:08:05.140Z,42.20
2023-02-16T04:10:32.282Z,46.83
2023-02-16T04:12:59.263Z,45.47
2023-02-16T04:15:28.875Z,41.70
2023-02-16T04:17:56.206Z,41.47
2023-02-16T04:20:26.633Z,47.65
2023-02-16T04:22:53.677Z,46.83
2023-02-16T04:25:21.135Z,45.05
2023-02-16T04:27:48.722Z,44.92
2023-02-16T04:30:27.904Z,42.08
2023-02-16T04:32:55.635Z,43.38
2023-02-16T04:35:23.031Z,45.42
2023-02-16T04:37:49.906Z,48.40
2023-02-16T04:40:17.876Z,48.85
2023-02-16T04:42:45.937Z,50.63
2023-02-16T04:45:13.472Z,52.85
2023-02-16T04:47:40.392Z,53.42
2023-02-16T04:50:08.584Z,51.35
2023-02-16T04:52:36.874Z,54.72
2023-02-16T04:55:05.693Z,55.67
2023-02-16T04:57:33.136Z,48.95
2023-02-16T05:00:00.098Z,50.15
2023-02-16T05:02:27.111Z,54.05
2023-02-16T05:04:54.018Z,60.95
2023-02-16T05:07:20.861Z,61.67
2023-02-16T05:09:47.734Z,59.80
2023-02-16T05:12:33.145Z,60.15
2023-02-16T05:15:00.045Z,55.88
2023-02-16T05:17:27.816Z,57.08
2023-02-16T05:19:57.030Z,55.28
2023-02-16T05:22:25.018Z,51.50
2023-02-16T05:24:52.321Z,47.25
2023-02-16T05:27:27.000Z,50.33
2023-02-16T05:29:54.257Z,46.72
2023-02-16T05:32:21.854Z,43.63
2023-02-16T05:34:48.766Z,43.15
2023-02-16T05:37:17.942Z,42.60
2023-02-16T05:39:45.352Z,38.75
2023-02-16T05:42:12.552Z,38.55
2023-02-16T05:44:39.609Z,39.33
2023-02-16T05:47:06.514Z,37.97
2023-02-16T05:49:33.420Z,39.83
2023-02-16T05:52:00.373Z,40.03
2023-02-16T05:54:28.106Z,39.08
2023-02-16T05:56:55.547Z,38.75
2023-02-16T05:59:22.452Z,42.20
2023-02-16T06:01:51.812Z,43.05
2023-02-16T06:04:20.605Z,42.58
2023-02-16T06:06:47.658Z,40.03
2023-02-16T06:09:14.628Z,39.13
2023-02-16T06:11:41.562Z,35.90
2023-02-16T06:14:11.086Z,38.92
2023-02-16T06:16:40.290Z,33.15
2023-02-16T06:19:07.934Z,31.50
2023-02-16T06:21:36.679Z,29.67
2023-02-16T06:24:03.939Z,27.33
2023-02-16T06:26:31.177Z,26.00
2023-02-16T06:28:58.298Z,24.33
2023-02-16T06:31:25.848Z,25.85
2023-02-16T06:33:53.872Z,25.05
2023-02-16T06:36:21.028Z,23.75
2023-02-16T06:38:48.075Z,22.58
2023-02-16T06:41:31.512Z,22.85
2023-02-16T06:44:02.318Z,20.80
2023-02-16T06:46:29.354Z,21.67
2023-02-16T06:48:56.419Z,22.58
2023-02-16T06:51:23.991Z,22.23
2023-02-16T06:53:50.956Z,22.98
2023-02-16T06:56:17.928Z,21.52
2023-02-16T06:58:44.852Z,22.38
2023-02-16T07:01:12.098Z,25.25
2023-02-16T07:03:39.960Z,25.30
2023-02-16T07:06:07.486Z,24.60
2023-02-16T07:08:35.825Z,24.90
2023-02-16T07:11:03.323Z,24.92
2023-02-16T07:13:30.424Z,24.05
2023-02-16T07:15:57.607Z,23.50
2023-02-16T07:18:24.520Z,19.25
2023-02-16T07:20:51.482Z,20.75
2023-02-16T07:23:18.402Z,19.73
2023-02-16T07:25:45.308Z,20.15
2023-02-16T07:28:12.201Z,20.40
2023-02-16T07:30:39.194Z,20.80
2023-02-16T07:33:08.831Z,21.45
2023-02-16T07:35:36.545Z,23.33
2023-02-16T07:38:05.370Z,23.08
2023-02-16T07:40:32.768Z,24.33
2023-02-16T07:43:04.575Z,23.15
2023-02-16T07:45:35.224Z,21.52
2023-02-16T07:48:02.598Z,22.80
2023-02-16T07:50:29.573Z,21.25
2023-02-16T07:52:56.589Z,20.88
2023-02-16T07:55:23.481Z,20.23
2023-02-16T07:57:54.770Z,17.02
2023-02-16T08:00:22.449Z,19.13
2023-02-16T08:02:49.901Z,19.90
2023-02-16T08:05:17.464Z,18.45
2023-02-16T08:07:46.643Z,16.60
2023-02-16T08:10:14.263Z,16.92
2023-02-16T08:12:41.675Z,17.35
2023-02-16T08:15:10.007Z,16.65
2023-02-16T08:17:36.909Z,17.08
2023-02-16T08:20:06.294Z,18.35
2023-02-16T08:22:33.252Z,17.48
2023-02-16T08:25:00.324Z,16.92
2023-02-16T08:27:27.301Z,17.00
2023-02-16T08:29:54.557Z,16.73
2023-02-16T08:32:21.533Z,14.82
2023-02-16T08:34:48.502Z,15.70
2023-02-16T08:37:15.577Z,16.98
2023-02-16T08:39:42.749Z,16.77
2023-02-16T08:42:13.890Z,17.00
2023-02-16T08:44:42.439Z,17.75
2023-02-16T08:47:11.019Z,17.65
2023-02-16T08:49:39.479Z,17.95
2023-02-16T08:52:06.682Z,18.85
2023-02-16T08:54:33.810Z,18.60
2023-02-16T08:57:03.157Z,15.70
2023-02-16T08:59:31.159Z,14.82
2023-02-16T09:01:58.437Z,14.55
2023-02-16T09:04:27.727Z,13.38
2023-02-16T09:06:56.624Z,12.57
2023-02-16T09:09:23.900Z,11.50
2023-02-16T09:11:50.787Z,10.50
2023-02-16T09:14:18.727Z,10.50
2023-02-16T09:16:46.593Z,11.70
2023-02-16T09:19:19.696Z,10.75
2023-02-16T09:21:47.515Z,11.40
2023-02-16T09:24:14.484Z,10.90
2023-02-16T09:26:43.080Z,9.57
2023-02-16T09:29:12.563Z,10.98
2023-02-16T09:31:39.899Z,11.85
2023-02-16T09:34:21.461Z,11.23
2023-02-16T09:36:49.910Z,11.65
2023-02-16T09:39:17.435Z,12.93
2023-02-16T09:41:53.250Z,13.05
2023-02-16T09:44:38.111Z,12.73
2023-02-16T09:47:14.468Z,12.32
2023-02-16T09:49:46.920Z,12.65
2023-02-16T09:52:23.429Z,13.32
2023-02-16T09:54:59.600Z,13.77
2023-02-16T09:57:44.338Z,13.35
2023-02-16T10:00:23.611Z,13.35
2023-02-16T10:02:56.330Z,12.32
2023-02-16T10:05:44.753Z,10.40
2023-02-16T10:08:16.124Z,11.35
2023-02-16T10:11:01.812Z,11.27
2023-02-16T10:13:32.161Z,10.93
2023-02-16T10:16:03.101Z,12.80
2023-02-16T10:18:35.398Z,13.52
2023-02-16T10:21:08.190Z,11.95
2023-02-16T10:23:57.863Z,11.82
2023-02-16T10:26:39.768Z,10.73
2023-02-16T10:29:11.371Z,10.70
2023-02-16T10:31:48.659Z,8.40
2023-02-16T10:34:33.697Z,12.13
2023-02-16T10:40:23.223Z,4.63
2023-02-16T10:43:21.309Z,9.93
2023-02-16T10:45:56.616Z,11.50
2023-02-16T10:48:24.355Z,6.38
2023-02-16T10:51:06.416Z,5.35
2023-02-16T10:53:42.700Z,5.82
2023-02-16T10:56:28.085Z,4.82
2023-02-16T10:58:56.737Z,5.68
2023-02-16T11:01:39.882Z,4.68
2023-02-16T11:04:27.032Z,3.88
2023-02-16T11:07:24.737Z,5.50
2023-02-16T11:09:54.926Z,5.78
2023-02-16T11:12:38.678Z,5.43
2023-02-16T11:15:26.526Z,4.75
2023-02-16T11:17:57.896Z,4.65
2023-02-16T11:20:36.967Z,5.40
2023-02-16T11:23:31.747Z,5.00
2023-02-16T11:25:58.690Z,4.85
2023-02-16T11:28:37.663Z,4.90
2023-02-16T11:31:22.411Z,4.32
2023-02-16T11:34:08.490Z,5.38
2023-02-16T11:36:42.242Z,6.05
2023-02-16T11:39:22.516Z,4.82
2023-02-16T11:41:59.006Z,4.32
2023-02-16T11:44:51.245Z,4.18
2023-02-16T11:47:28.905Z,2.58
2023-02-16T11:50:19.009Z,2.75
2023-02-16T11:52:49.670Z,3.05
2023-02-16T11:55:27.577Z,2.83
2023-02-16T11:57:56.507Z,2.40
2023-02-16T12:00:26.784Z,2.67
2023-02-16T12:03:13.615Z,2.47
2023-02-16T12:05:43.571Z,3.83
2023-02-16T12:08:19.441Z,11.40
2023-02-16T12:11:10.071Z,8.98
2023-02-16T12:13:42.758Z,9.85
2023-02-16T12:16:51.947Z,10.57
2023-02-16T12:19:45.796Z,10.02
2023-02-16T12:22:35.458Z,9.95
2023-02-16T12:25:23.759Z,10.45
2023-02-16T12:28:06.500Z,9.98
2023-02-16T12:30:42.745Z,13.00
2023-02-16T12:33:21.131Z,12.30
2023-02-16T12:36:03.381Z,11.40
2023-02-16T12:38:39.792Z,11.80
2023-02-16T12:41:34.656Z,13.07
2023-02-16T12:44:06.610Z,13.02
2023-02-16T12:46:43.286Z,10.57
2023-02-16T12:49:13.378Z,9.90
2023-02-16T12:51:48.368Z,11.10
2023-02-16T12:54:27.873Z,12.30
2023-02-16T12:57:03.185Z,10.18
2023-02-16T13:04:54.703Z,13.75
2023-02-16T13:07:31.079Z,12.48
2023-02-16T13:10:25.041Z,11.30
2023-02-16T13:12:54.976Z,10.65
2023-02-16T13:15:37.219Z,12.00
2023-02-16T13:18:17.224Z,12.27
2023-02-16T13:20:52.891Z,9.27
2023-02-16T13:23:31.886Z,12.65
2023-02-16T13:26:18.271Z,12.27
2023-02-16T13:29:03.203Z,12.00
2023-02-16T13:31:38.428Z,11.90
2023-02-16T13:37:06.583Z,12.30
2023-02-16T13:39:58.389Z,12.50
2023-02-16T13:43:01.234Z,10.70
2023-02-16T13:45:32.873Z,11.50
2023-02-16T13:48:01.057Z,12.18
2023-02-16T13:50:32.140Z,8.48
2023-02-16T13:53:16.086Z,8.60
2023-02-16T13:55:43.046Z,11.70
2023-02-16T13:58:12.675Z,10.68
2023-02-16T14:00:50.010Z,9.80
2023-02-16T14:03:16.879Z,10.90
2023-02-16T14:05:49.343Z,10.93
2023-02-16T14:08:19.577Z,11.50
2023-02-16T14:10:59.028Z,13.70
2023-02-16T14:13:28.789Z,13.00
2023-02-16T14:15:58.837Z,13.93
2023-02-16T14:18:32.950Z,12.93
2023-02-16T14:21:26.502Z,13.15
2023-02-16T14:24:03.255Z,12.60
2023-02-16T14:26:32.141Z,13.88
2023-02-16T14:29:12.689Z,14.13
2023-02-16T14:32:05.861Z,12.60
2023-02-16T14:34:47.092Z,11.73
2023-02-16T14:37:17.105Z,14.32
2023-02-16T14:40:06.449Z,14.15
2023-02-16T14:42:35.032Z,16.50
2023-02-16T14:45:18.872Z,16.50
2023-02-16T14:48:04.461Z,16.80
2023-02-16T14:50:37.246Z,16.42
2023-02-16T14:53:23.157Z,17.08
2023-02-16T14:56:32.055Z,17.23
2023-02-16T14:59:12.389Z,18.27
2023-02-16T15:01:42.071Z,16.73
2023-02-16T15:04:11.466Z,17.88
2023-02-16T15:06:46.955Z,18.77
2023-02-16T15:09:26.990Z,18.45
2023-02-16T15:12:16.003Z,18.52
2023-02-16T15:15:04.865Z,18.50
2023-02-16T15:17:39.406Z,19.17
2023-02-16T15:20:20.069Z,18.40
2023-02-16T15:22:59.129Z,17.80
2023-02-16T15:25:32.902Z,18.75
2023-02-16T15:28:04.545Z,18.30
2023-02-16T15:30:37.753Z,19.88
2023-02-16T15:33:25.684Z,19.73
2023-02-16T15:35:59.688Z,19.58
2023-02-16T15:38:32.986Z,18.73
2023-02-16T15:41:14.568Z,20.15
2023-02-16T15:43:47.055Z,20.08
2023-02-16T15:46:17.233Z,20.83
2023-02-16T15:48:44.405Z,18.83
2023-02-16T15:51:17.111Z,19.10
2023-02-16T15:53:49.192Z,19.10
2023-02-16T15:56:31.378Z,21.30
2023-02-16T15:59:01.780Z,20.95
2023-02-16T16:01:35.554Z,21.60
2023-02-16T16:04:24.355Z,20.50
2023-02-16T16:06:52.652Z,19.20
2023-02-16T16:09:26.558Z,21.70
2023-02-16T16:11:57.946Z,22.42
2023-02-16T16:14:26.776Z,21.63
2023-02-16T16:16:54.907Z,19.13
2023-02-16T16:19:34.746Z,21.33
2023-02-16T16:22:04.434Z,22.10
2023-02-16T16:24:39.062Z,20.80
2023-02-16T16:27:11.825Z,22.13
2023-02-16T16:29:47.628Z,21.73
2023-02-16T16:32:30.410Z,20.83
2023-02-16T16:34:57.559Z,22.55
2023-02-16T16:37:28.612Z,23.48
2023-02-16T16:40:19.985Z,22.30
2023-02-16T16:43:05.105Z,22.95
2023-02-16T16:45:37.185Z,23.27
2023-02-16T16:48:26.464Z,22.90
2023-02-16T16:51:24.332Z,24.50
2023-02-16T16:53:52.966Z,24.05
2023-02-16T16:56:20.983Z,23.65
2023-02-16T16:58:52.648Z,23.05
2023-02-16T17:01:20.814Z,24.15
2023-02-16T17:03:48.131Z,23.50
2023-02-16T17:06:15.531Z,24.45
2023-02-16T17:08:42.506Z,24.13
2023-02-16T17:11:20.860Z,25.38
2023-02-16T17:13:47.774Z,21.30
2023-02-16T17:16:19.216Z,23.10
2023-02-16T17:18:46.163Z,24.75
2023-02-16T17:21:13.954Z,22.63
2023-02-16T17:23:50.407Z,23.80
2023-02-16T17:26:19.700Z,23.77
2023-02-16T17:28:46.645Z,23.63
2023-02-16T17:31:13.626Z,22.95
2023-02-16T17:33:40.782Z,21.92
2023-02-16T17:36:08.519Z,22.13
2023-02-16T17:38:35.527Z,23.38
2023-02-16T17:41:02.625Z,21.77
2023-02-16T17:43:29.609Z,22.27
2023-02-16T17:45:59.716Z,23.55
2023-02-16T17:48:30.492Z,24.17
2023-02-16T17:50:58.372Z,23.50
2023-02-16T17:53:27.139Z,23.17
2023-02-16T17:55:57.548Z,22.85
2023-02-16T17:58:25.482Z,22.27
2023-02-16T18:00:53.048Z,22.63
2023-02-16T18:03:20.010Z,22.40
2023-02-16T18:05:46.910Z,22.92
2023-02-16T18:08:13.901Z,23.67
2023-02-16T18:10:47.412Z,22.48
2023-02-16T18:13:15.522Z,23.20
2023-02-16T18:15:48.421Z,22.92
2023-02-16T18:18:17.053Z,23.50
2023-02-16T18:20:44.877Z,23.05
2023-02-16T18:23:12.385Z,21.73
2023-02-16T18:25:41.514Z,22.90
2023-02-16T18:28:09.432Z,22.08
2023-02-16T18:30:36.401Z,23.33
2023-02-16T18:33:03.408Z,22.02
2023-02-16T18:35:31.972Z,21.10
2023-02-16T18:37:59.698Z,21.27
2023-02-16T18:40:26.882Z,21.45
2023-02-16T18:42:54.058Z,20.60
2023-02-16T18:45:21.300Z,20.83
2023-02-16T18:47:48.389Z,21.02
2023-02-16T18:50:15.628Z,21.77
2023-02-16T18:52:43.453Z,19.38
2023-02-16T18:55:11.956Z,19.88
2023-02-16T18:57:39.326Z,18.35
2023-02-16T19:00:09.758Z,19.33
2023-02-16T19:02:37.293Z,19.50
2023-02-16T19:05:04.638Z,20.02
2023-02-16T19:07:31.920Z,19.90
2023-02-16T19:09:58.986Z,17.38
2023-02-16T19:12:26.493Z,16.23
2023-02-16T19:14:53.434Z,15.63
2023-02-16T19:17:20.383Z,14.95
2023-02-16T19:19:47.374Z,15.50
2023-02-16T19:22:14.322Z,14.77
2023-02-16T19:24:41.399Z,16.08
2023-02-16T19:27:08.355Z,16.77
2023-02-16T19:29:35.321Z,16.80
2023-02-16T19:32:02.225Z,19.55
2023-02-16T19:34:29.105Z,18.73
2023-02-16T19:36:56.017Z,18.88
2023-02-16T19:39:22.909Z,18.85
2023-02-16T19:41:49.831Z,19.90
2023-02-16T19:44:17.481Z,17.55
2023-02-16T19:46:44.578Z,17.42
2023-02-16T19:49:15.189Z,18.40
2023-02-16T19:51:42.504Z,19.02
2023-02-16T19:54:09.535Z,16.88
2023-02-16T19:56:40.508Z,16.42
2023-02-16T19:59:08.599Z,16.45
2023-02-16T20:01:35.974Z,17.30
2023-02-16T20:04:03.228Z,16.60
2023-02-16T20:06:39.440Z,15.90
2023-02-16T20:09:06.392Z,15.10
2023-02-16T20:11:34.280Z,16.48
2023-02-16T20:14:01.725Z,16.85
2023-02-16T20:16:29.454Z,16.35
2023-02-16T20:18:57.361Z,17.42
2023-02-16T20:21:26.811Z,18.42
2023-02-16T20:23:58.172Z,16.23
2023-02-16T20:26:33.871Z,17.75
2023-02-16T20:29:01.816Z,17.88
2023-02-16T20:31:32.914Z,17.98
2023-02-16T20:34:00.037Z,16.88
2023-02-16T20:36:27.556Z,18.55
2023-02-16T20:38:54.633Z,16.98
2023-02-16T20:41:22.100Z,15.55
2023-02-16T20:43:49.224Z,15.65
2023-02-16T20:46:17.736Z,22.25
2023-02-16T20:48:45.189Z,18.83
2023-02-16T20:51:13.501Z,15.85
2023-02-16T20:53:40.473Z,16.90
2023-02-16T20:56:36.766Z,16.83
2023-02-16T20:59:04.871Z,18.10
2023-02-16T21:01:38.320Z,18.80
2023-02-16T21:04:07.608Z,20.98
2023-02-16T21:06:35.231Z,19.20
2023-02-16T21:09:02.750Z,18.55
2023-02-16T21:11:29.972Z,18.27
2023-02-16T21:13:58.410Z,17.73
2023-02-16T21:16:26.156Z,17.98
2023-02-16T21:18:53.120Z,17.80
2023-02-16T21:21:20.359Z,16.38
2023-02-16T21:23:50.666Z,16.38
2023-02-16T21:26:19.294Z,15.98
2023-02-16T21:28:46.650Z,15.73
2023-02-16T21:31:17.582Z,16.40
2023-02-16T21:33:45.058Z,16.67
2023-02-16T21:36:17.852Z,18.08
2023-02-16T21:38:46.646Z,17.92
2023-02-16T21:41:29.171Z,18.25
2023-02-16T21:44:08.630Z,19.20
2023-02-16T21:46:44.208Z,21.40
2023-02-16T21:51:44.841Z,20.05
2023-02-16T21:54:17.774Z,20.70
2023-02-16T21:56:51.669Z,17.42
2023-02-16T21:59:19.985Z,20.08
2023-02-16T22:01:51.251Z,20.33
2023-02-16T22:04:21.187Z,18.38
2023-02-16T22:06:49.480Z,20.58
2023-02-16T22:09:19.658Z,20.02
2023-02-16T22:11:47.935Z,18.77
2023-02-16T22:14:15.310Z,18.02
2023-02-16T22:16:45.435Z,17.08
2023-02-16T22:19:14.912Z,16.35
2023-02-16T22:21:43.898Z,17.25
2023-02-16T22:24:13.381Z,16.90
2023-02-16T22:26:41.127Z,15.25
2023-02-16T22:29:09.317Z,17.13
2023-02-16T22:31:36.816Z,18.52
2023-02-16T22:34:11.835Z,17.33
2023-02-16T22:36:38.968Z,16.65
2023-02-16T22:39:06.433Z,16.90
2023-02-16T22:41:34.058Z,18.05
2023-02-16T22:44:01.245Z,20.63
2023-02-16T22:46:29.564Z,19.85
2023-02-16T22:49:01.050Z,19.27
2023-02-16T22:51:29.922Z,19.38
2023-02-16T22:54:02.025Z,21.58
2023-02-16T22:56:30.015Z,19.85
2023-02-16T22:58:58.163Z,19.38
2023-02-16T23:01:26.596Z,20.55
2023-02-16T23:03:58.561Z,20.35
2023-02-16T23:06:28.263Z,17.70
2023-02-16T23:08:57.574Z,18.83
2023-02-16T23:11:25.555Z,20.55
2023-02-16T23:13:52.490Z,21.27
2023-02-16T23:16:22.258Z,20.70
2023-02-16T23:18:49.386Z,20.30
2023-02-16T23:21:28.424Z,20.45
2023-02-16T23:23:56.996Z,20.85
2023-02-16T23:26:27.448Z,22.17
2023-02-16T23:28:56.727Z,20.10
2023-02-16T23:31:23.963Z,21.80
2023-02-16T23:33:51.171Z,20.10
2023-02-16T23:36:18.150Z,22.42
2023-02-16T23:38:45.072Z,22.45
2023-02-16T23:41:13.207Z,23.13
2023-02-16T23:43:40.180Z,20.55
2023-02-16T23:46:08.577Z,19.25
2023-02-16T23:48:36.289Z,21.13
2023-02-16T23:51:03.198Z,22.98
2023-02-16T23:53:30.084Z,22.40
2023-02-16T23:56:02.507Z,24.67
2023-02-16T23:58:31.575Z,24.13
